sensor_id;sensor_type;location;lat;lon;timestamp;temperature;humidity
13091;DHT22;6611;52.604;13.438;2023-05-29T00:01:41;13.34;70.25
13091;DHT22;6611;52.604;13.438;2023-05-29T00:06:45;13.18;70.48
13091;DHT22;6611;52.604;13.438;2023-05-29T00:11:47;13.07;71.13
13091;DHT22;6611;52.604;13.438;2023-05-29T00:16:52;13.00;71.35
13091;DHT22;6611;52.604;13.438;2023-05-29T00:21:55;12.93;71.23
13091;DHT22;6611;52.604;13.438;2023-05-29T00:26:56;12.76;71.86
13091;DHT22;6611;52.604;13.438;2023-05-29T00:31:58;12.66;72.17
13091;DHT22;6611;52.604;13.438;2023-05-29T00:37:01;12.60;72.54
13091;DHT22;6611;52.604;13.438;2023-05-29T00:42:03;12.59;72.62
13091;DHT22;6611;52.604;13.438;2023-05-29T00:47:05;12.52;73.03
13091;DHT22;6611;52.604;13.438;2023-05-29T00:52:09;12.43;73.28
13091;DHT22;6611;52.604;13.438;2023-05-29T00:57:12;12.32;73.61
13091;DHT22;6611;52.604;13.438;2023-05-29T01:02:14;12.28;73.67
13091;DHT22;6611;52.604;13.438;2023-05-29T01:07:18;12.27;74.00
13091;DHT22;6611;52.604;13.438;2023-05-29T01:12:31;12.36;73.29
13091;DHT22;6611;52.604;13.438;2023-05-29T01:17:41;12.21;73.87
13091;DHT22;6611;52.604;13.438;2023-05-29T01:22:58;12.17;73.78
13091;DHT22;6611;52.604;13.438;2023-05-29T01:28:07;12.05;74.07
13091;DHT22;6611;52.604;13.438;2023-05-29T01:33:09;12.00;74.14
13091;DHT22;6611;52.604;13.438;2023-05-29T01:38:11;11.97;74.22
13091;DHT22;6611;52.604;13.438;2023-05-29T01:43:14;11.86;74.21
13091;DHT22;6611;52.604;13.438;2023-05-29T01:48:17;11.82;74.58
13091;DHT22;6611;52.604;13.438;2023-05-29T01:53:19;11.73;74.50
13091;DHT22;6611;52.604;13.438;2023-05-29T01:58:23;11.65;75.14
13091;DHT22;6611;52.604;13.438;2023-05-29T02:03:25;11.58;75.19
13091;DHT22;6611;52.604;13.438;2023-05-29T02:08:29;11.58;75.15
13091;DHT22;6611;52.604;13.438;2023-05-29T02:13:32;11.52;75.35
13091;DHT22;6611;52.604;13.438;2023-05-29T02:18:34;11.56;75.24
13091;DHT22;6611;52.604;13.438;2023-05-29T02:23:35;11.48;75.44
13091;DHT22;6611;52.604;13.438;2023-05-29T02:28:38;11.43;75.52
13091;DHT22;6611;52.604;13.438;2023-05-29T02:33:40;11.32;75.60
13091;DHT22;6611;52.604;13.438;2023-05-29T02:38:42;11.24;76.05
13091;DHT22;6611;52.604;13.438;2023-05-29T02:43:45;11.22;76.09
13091;DHT22;6611;52.604;13.438;2023-05-29T02:48:46;11.14;76.29
13091;DHT22;6611;52.604;13.438;2023-05-29T02:53:48;11.15;76.11
13091;DHT22;6611;52.604;13.438;2023-05-29T02:58:51;11.24;76.06
13091;DHT22;6611;52.604;13.438;2023-05-29T03:03:53;11.18;76.12
13091;DHT22;6611;52.604;13.438;2023-05-29T03:08:56;11.25;75.90
13091;DHT22;6611;52.604;13.438;2023-05-29T03:14:01;11.21;75.95
13091;DHT22;6611;52.604;13.438;2023-05-29T03:19:04;11.21;75.94
13091;DHT22;6611;52.604;13.438;2023-05-29T03:24:06;11.20;75.90
13091;DHT22;6611;52.604;13.438;2023-05-29T03:29:09;11.22;75.93
13091;DHT22;6611;52.604;13.438;2023-05-29T03:34:11;11.28;75.82
13091;DHT22;6611;52.604;13.438;2023-05-29T03:39:13;11.34;75.81
13091;DHT22;6611;52.604;13.438;2023-05-29T03:44:16;11.42;75.60
13091;DHT22;6611;52.604;13.438;2023-05-29T03:49:18;11.45;75.72
13091;DHT22;6611;52.604;13.438;2023-05-29T03:54:20;11.48;75.49
13091;DHT22;6611;52.604;13.438;2023-05-29T03:59:23;11.55;75.48
13091;DHT22;6611;52.604;13.438;2023-05-29T04:04:24;11.56;76.05
13091;DHT22;6611;52.604;13.438;2023-05-29T04:09:27;11.73;75.50
13091;DHT22;6611;52.604;13.438;2023-05-29T04:14:30;11.87;75.22
13091;DHT22;6611;52.604;13.438;2023-05-29T04:19:31;12.05;74.70
13091;DHT22;6611;52.604;13.438;2023-05-29T04:24:33;12.24;74.31
13091;DHT22;6611;52.604;13.438;2023-05-29T04:29:37;12.36;73.37
13091;DHT22;6611;52.604;13.438;2023-05-29T04:34:40;12.41;72.85
13091;DHT22;6611;52.604;13.438;2023-05-29T04:39:44;12.53;73.17
13091;DHT22;6611;52.604;13.438;2023-05-29T04:44:47;12.59;72.92
13091;DHT22;6611;52.604;13.438;2023-05-29T04:49:49;12.66;72.38
13091;DHT22;6611;52.604;13.438;2023-05-29T04:54:52;12.84;71.78
13091;DHT22;6611;52.604;13.438;2023-05-29T04:59:55;13.04;71.62
13091;DHT22;6611;52.604;13.438;2023-05-29T05:04:56;12.93;70.91
13091;DHT22;6611;52.604;13.438;2023-05-29T05:09:58;13.22;70.70
13091;DHT22;6611;52.604;13.438;2023-05-29T05:15:01;13.60;69.65
13091;DHT22;6611;52.604;13.438;2023-05-29T05:20:03;13.73;69.46
13091;DHT22;6611;52.604;13.438;2023-05-29T05:25:06;13.88;69.59
13091;DHT22;6611;52.604;13.438;2023-05-29T05:30:11;13.87;69.55
13091;DHT22;6611;52.604;13.438;2023-05-29T05:35:13;13.95;69.04
13091;DHT22;6611;52.604;13.438;2023-05-29T05:40:15;14.12;68.89
13091;DHT22;6611;52.604;13.438;2023-05-29T05:45:18;14.22;68.43
13091;DHT22;6611;52.604;13.438;2023-05-29T05:50:19;14.33;66.94
13091;DHT22;6611;52.604;13.438;2023-05-29T05:55:22;14.52;66.17
13091;DHT22;6611;52.604;13.438;2023-05-29T06:00:25;14.95;65.76
13091;DHT22;6611;52.604;13.438;2023-05-29T06:05:28;15.28;63.77
13091;DHT22;6611;52.604;13.438;2023-05-29T06:10:30;15.46;63.13
13091;DHT22;6611;52.604;13.438;2023-05-29T06:15:33;15.80;62.68
13091;DHT22;6611;52.604;13.438;2023-05-29T06:20:36;16.36;60.81
13091;DHT22;6611;52.604;13.438;2023-05-29T06:25:37;16.53;60.78
13091;DHT22;6611;52.604;13.438;2023-05-29T06:30:40;16.75;58.26
13091;DHT22;6611;52.604;13.438;2023-05-29T06:35:42;17.14;58.85
13091;DHT22;6611;52.604;13.438;2023-05-29T06:40:44;17.66;56.99
13091;DHT22;6611;52.604;13.438;2023-05-29T06:45:47;17.73;54.79
13091;DHT22;6611;52.604;13.438;2023-05-29T06:50:48;18.21;53.24
13091;DHT22;6611;52.604;13.438;2023-05-29T06:55:50;18.63;52.14
13091;DHT22;6611;52.604;13.438;2023-05-29T07:00:53;19.67;51.54
13091;DHT22;6611;52.604;13.438;2023-05-29T07:05:55;19.98;48.62
13091;DHT22;6611;52.604;13.438;2023-05-29T07:10:56;20.98;47.31
13091;DHT22;6611;52.604;13.438;2023-05-29T07:15:59;21.46;46.33
13091;DHT22;6611;52.604;13.438;2023-05-29T07:21:01;20.99;45.82
13091;DHT22;6611;52.604;13.438;2023-05-29T07:26:03;21.32;44.41
13091;DHT22;6611;52.604;13.438;2023-05-29T07:31:06;21.37;45.96
13091;DHT22;6611;52.604;13.438;2023-05-29T07:36:07;21.93;43.57
13091;DHT22;6611;52.604;13.438;2023-05-29T07:41:09;21.34;45.03
13091;DHT22;6611;52.604;13.438;2023-05-29T07:46:12;20.92;46.56
13091;DHT22;6611;52.604;13.438;2023-05-29T07:51:14;21.32;45.36
13091;DHT22;6611;52.604;13.438;2023-05-29T07:56:15;22.32;42.84
13091;DHT22;6611;52.604;13.438;2023-05-29T08:01:19;22.32;44.58
13091;DHT22;6611;52.604;13.438;2023-05-29T08:06:21;22.46;43.97
13091;DHT22;6611;52.604;13.438;2023-05-29T08:11:23;22.17;45.13
13091;DHT22;6611;52.604;13.438;2023-05-29T08:16:27;22.63;43.94
13091;DHT22;6611;52.604;13.438;2023-05-29T08:21:28;23.12;42.62
13091;DHT22;6611;52.604;13.438;2023-05-29T08:26:30;23.13;40.84
13091;DHT22;6611;52.604;13.438;2023-05-29T08:31:33;22.30;42.39
13091;DHT22;6611;52.604;13.438;2023-05-29T08:36:36;22.81;40.67
13091;DHT22;6611;52.604;13.438;2023-05-29T08:41:44;22.72;39.27
13091;DHT22;6611;52.604;13.438;2023-05-29T08:46:54;22.58;40.17
13091;DHT22;6611;52.604;13.438;2023-05-29T08:52:02;23.23;41.68
13091;DHT22;6611;52.604;13.438;2023-05-29T08:57:04;22.69;42.13
13091;DHT22;6611;52.604;13.438;2023-05-29T09:02:08;22.63;40.45
13091;DHT22;6611;52.604;13.438;2023-05-29T09:07:10;22.85;41.55
13091;DHT22;6611;52.604;13.438;2023-05-29T09:12:13;22.12;43.35
13091;DHT22;6611;52.604;13.438;2023-05-29T09:17:17;22.87;41.31
13091;DHT22;6611;52.604;13.438;2023-05-29T09:22:19;23.23;41.94
13091;DHT22;6611;52.604;13.438;2023-05-29T09:27:21;22.30;41.54
13091;DHT22;6611;52.604;13.438;2023-05-29T09:32:32;22.69;42.12
13091;DHT22;6611;52.604;13.438;2023-05-29T09:37:33;22.64;39.88
13091;DHT22;6611;52.604;13.438;2023-05-29T09:42:37;22.95;39.97
13091;DHT22;6611;52.604;13.438;2023-05-29T09:47:40;23.28;39.05
13091;DHT22;6611;52.604;13.438;2023-05-29T09:52:42;23.74;38.28
13091;DHT22;6611;52.604;13.438;2023-05-29T09:57:45;23.50;38.90
13091;DHT22;6611;52.604;13.438;2023-05-29T10:02:49;22.94;39.09
13091;DHT22;6611;52.604;13.438;2023-05-29T10:07:53;22.78;38.88
13091;DHT22;6611;52.604;13.438;2023-05-29T10:12:55;22.48;40.50
13091;DHT22;6611;52.604;13.438;2023-05-29T10:18:03;22.55;38.92
13091;DHT22;6611;52.604;13.438;2023-05-29T10:23:06;23.02;38.38
13091;DHT22;6611;52.604;13.438;2023-05-29T10:28:07;22.63;40.26
13091;DHT22;6611;52.604;13.438;2023-05-29T10:33:23;22.12;41.42
13091;DHT22;6611;52.604;13.438;2023-05-29T10:38:32;22.60;39.57
13091;DHT22;6611;52.604;13.438;2023-05-29T10:43:34;22.76;40.82
13091;DHT22;6611;52.604;13.438;2023-05-29T10:48:43;22.89;38.65
13091;DHT22;6611;52.604;13.438;2023-05-29T10:53:44;22.79;39.67
13091;DHT22;6611;52.604;13.438;2023-05-29T10:58:52;23.57;38.37
13091;DHT22;6611;52.604;13.438;2023-05-29T11:04:27;23.65;37.28
13091;DHT22;6611;52.604;13.438;2023-05-29T11:09:32;23.39;38.10
13091;DHT22;6611;52.604;13.438;2023-05-29T11:14:45;23.22;38.19
13091;DHT22;6611;52.604;13.438;2023-05-29T11:19:48;23.67;37.24
13091;DHT22;6611;52.604;13.438;2023-05-29T11:24:50;23.78;37.33
13091;DHT22;6611;52.604;13.438;2023-05-29T11:29:53;24.02;37.30
13091;DHT22;6611;52.604;13.438;2023-05-29T11:34:58;22.88;37.95
13091;DHT22;6611;52.604;13.438;2023-05-29T11:40:03;22.19;39.87
13091;DHT22;6611;52.604;13.438;2023-05-29T11:45:16;22.06;40.76
13091;DHT22;6611;52.604;13.438;2023-05-29T11:50:22;22.23;42.56
13091;DHT22;6611;52.604;13.438;2023-05-29T11:55:25;22.74;40.66
13091;DHT22;6611;52.604;13.438;2023-05-29T12:00:31;22.54;40.48
13091;DHT22;6611;52.604;13.438;2023-05-29T12:05:46;22.51;40.59
13091;DHT22;6611;52.604;13.438;2023-05-29T12:10:49;22.96;40.52
13091;DHT22;6611;52.604;13.438;2023-05-29T12:15:53;23.75;38.87
13091;DHT22;6611;52.604;13.438;2023-05-29T12:21:00;24.41;37.19
13091;DHT22;6611;52.604;13.438;2023-05-29T12:26:02;24.38;37.55
13091;DHT22;6611;52.604;13.438;2023-05-29T12:31:04;24.05;36.82
13091;DHT22;6611;52.604;13.438;2023-05-29T12:36:09;24.21;38.40
13091;DHT22;6611;52.604;13.438;2023-05-29T12:41:22;23.54;38.61
13091;DHT22;6611;52.604;13.438;2023-05-29T12:46:24;23.88;38.49
13091;DHT22;6611;52.604;13.438;2023-05-29T12:51:27;23.93;38.09
13091;DHT22;6611;52.604;13.438;2023-05-29T12:56:29;23.49;38.44
13091;DHT22;6611;52.604;13.438;2023-05-29T13:01:31;23.05;38.46
13091;DHT22;6611;52.604;13.438;2023-05-29T13:06:34;22.48;39.41
13091;DHT22;6611;52.604;13.438;2023-05-29T13:11:37;21.89;40.48
13091;DHT22;6611;52.604;13.438;2023-05-29T13:16:38;21.85;41.96
13091;DHT22;6611;52.604;13.438;2023-05-29T13:21:41;21.68;41.36
13091;DHT22;6611;52.604;13.438;2023-05-29T13:26:48;21.59;41.11
13091;DHT22;6611;52.604;13.438;2023-05-29T13:31:50;21.64;42.21
13091;DHT22;6611;52.604;13.438;2023-05-29T13:36:53;21.41;43.29
13091;DHT22;6611;52.604;13.438;2023-05-29T13:41:55;21.58;41.89
13091;DHT22;6611;52.604;13.438;2023-05-29T13:46:57;21.89;41.30
13091;DHT22;6611;52.604;13.438;2023-05-29T13:52:00;21.73;41.38
13091;DHT22;6611;52.604;13.438;2023-05-29T13:57:01;21.61;42.04
13091;DHT22;6611;52.604;13.438;2023-05-29T14:02:04;21.61;41.32
13091;DHT22;6611;52.604;13.438;2023-05-29T14:07:07;22.09;40.04
13091;DHT22;6611;52.604;13.438;2023-05-29T14:12:09;21.62;40.99
13091;DHT22;6611;52.604;13.438;2023-05-29T14:17:11;21.58;43.68
13091;DHT22;6611;52.604;13.438;2023-05-29T14:22:14;21.95;41.32
13091;DHT22;6611;52.604;13.438;2023-05-29T14:27:16;22.58;39.72
13091;DHT22;6611;52.604;13.438;2023-05-29T14:32:17;21.67;39.75
13091;DHT22;6611;52.604;13.438;2023-05-29T14:37:20;21.55;42.42
13091;DHT22;6611;52.604;13.438;2023-05-29T14:42:22;21.46;41.81
13091;DHT22;6611;52.604;13.438;2023-05-29T14:47:24;21.29;42.11
13091;DHT22;6611;52.604;13.438;2023-05-29T14:52:27;21.06;41.45
13091;DHT22;6611;52.604;13.438;2023-05-29T14:57:28;21.46;41.95
13091;DHT22;6611;52.604;13.438;2023-05-29T15:02:33;21.64;40.34
13091;DHT22;6611;52.604;13.438;2023-05-29T15:07:36;21.67;39.80
13091;DHT22;6611;52.604;13.438;2023-05-29T15:12:37;21.59;39.79
13091;DHT22;6611;52.604;13.438;2023-05-29T15:17:39;21.79;39.48
13091;DHT22;6611;52.604;13.438;2023-05-29T15:22:42;21.91;38.37
13091;DHT22;6611;52.604;13.438;2023-05-29T15:27:44;21.69;40.34
13091;DHT22;6611;52.604;13.438;2023-05-29T15:32:46;21.67;40.20
13091;DHT22;6611;52.604;13.438;2023-05-29T15:37:49;21.86;40.68
13091;DHT22;6611;52.604;13.438;2023-05-29T15:42:50;21.67;39.43
13091;DHT22;6611;52.604;13.438;2023-05-29T15:47:52;21.23;39.98
13091;DHT22;6611;52.604;13.438;2023-05-29T15:52:55;21.59;40.60
13091;DHT22;6611;52.604;13.438;2023-05-29T15:57:57;21.53;39.70
13091;DHT22;6611;52.604;13.438;2023-05-29T16:02:59;21.74;41.13
13091;DHT22;6611;52.604;13.438;2023-05-29T16:08:02;21.67;39.01
13091;DHT22;6611;52.604;13.438;2023-05-29T16:13:04;21.62;40.61
13091;DHT22;6611;52.604;13.438;2023-05-29T16:18:06;21.33;39.58
13091;DHT22;6611;52.604;13.438;2023-05-29T16:23:09;21.19;39.18
13091;DHT22;6611;52.604;13.438;2023-05-29T16:28:11;21.03;39.31
13091;DHT22;6611;52.604;13.438;2023-05-29T16:33:13;21.15;40.22
13091;DHT22;6611;52.604;13.438;2023-05-29T16:38:17;21.36;39.78
13091;DHT22;6611;52.604;13.438;2023-05-29T16:43:18;21.48;39.61
13091;DHT22;6611;52.604;13.438;2023-05-29T16:48:20;21.64;39.12
13091;DHT22;6611;52.604;13.438;2023-05-29T16:53:23;21.46;37.51
13091;DHT22;6611;52.604;13.438;2023-05-29T16:58:25;21.27;35.23
13091;DHT22;6611;52.604;13.438;2023-05-29T17:03:26;21.20;36.26
13091;DHT22;6611;52.604;13.438;2023-05-29T17:08:29;21.05;35.50
13091;DHT22;6611;52.604;13.438;2023-05-29T17:13:31;20.95;35.60
13091;DHT22;6611;52.604;13.438;2023-05-29T17:18:33;20.79;34.73
13091;DHT22;6611;52.604;13.438;2023-05-29T17:23:36;20.55;34.42
13091;DHT22;6611;52.604;13.438;2023-05-29T17:28:38;20.54;35.57
13091;DHT22;6611;52.604;13.438;2023-05-29T17:33:39;20.41;35.94
13091;DHT22;6611;52.604;13.438;2023-05-29T17:38:42;20.12;37.26
13091;DHT22;6611;52.604;13.438;2023-05-29T17:43:44;19.89;37.23
13091;DHT22;6611;52.604;13.438;2023-05-29T17:48:46;19.85;37.57
13091;DHT22;6611;52.604;13.438;2023-05-29T17:53:50;19.73;38.12
13091;DHT22;6611;52.604;13.438;2023-05-29T17:58:51;19.64;39.10
13091;DHT22;6611;52.604;13.438;2023-05-29T18:03:53;19.41;40.44
13091;DHT22;6611;52.604;13.438;2023-05-29T18:08:56;19.19;40.37
13091;DHT22;6611;52.604;13.438;2023-05-29T18:13:58;19.15;40.77
13091;DHT22;6611;52.604;13.438;2023-05-29T18:18:59;19.02;41.49
13091;DHT22;6611;52.604;13.438;2023-05-29T18:24:03;18.98;42.08
13091;DHT22;6611;52.604;13.438;2023-05-29T18:29:05;18.87;42.15
13091;DHT22;6611;52.604;13.438;2023-05-29T18:34:06;18.67;42.66
13091;DHT22;6611;52.604;13.438;2023-05-29T18:39:09;18.43;41.61
13091;DHT22;6611;52.604;13.438;2023-05-29T18:44:11;18.19;41.02
13091;DHT22;6611;52.604;13.438;2023-05-29T18:49:13;18.06;39.69
13091;DHT22;6611;52.604;13.438;2023-05-29T18:54:17;17.99;40.24
13091;DHT22;6611;52.604;13.438;2023-05-29T18:59:18;17.85;40.98
13091;DHT22;6611;52.604;13.438;2023-05-29T19:04:20;17.81;40.60
13091;DHT22;6611;52.604;13.438;2023-05-29T19:09:23;17.74;41.08
13091;DHT22;6611;52.604;13.438;2023-05-29T19:14:25;17.54;41.00
13091;DHT22;6611;52.604;13.438;2023-05-29T19:19:27;17.50;41.34
13091;DHT22;6611;52.604;13.438;2023-05-29T19:24:30;17.39;42.97
13091;DHT22;6611;52.604;13.438;2023-05-29T19:29:31;17.32;42.99
13091;DHT22;6611;52.604;13.438;2023-05-29T19:34:33;17.12;44.08
13091;DHT22;6611;52.604;13.438;2023-05-29T19:39:36;17.12;44.67
13091;DHT22;6611;52.604;13.438;2023-05-29T19:44:38;17.02;44.64
13091;DHT22;6611;52.604;13.438;2023-05-29T19:49:40;16.89;46.08
13091;DHT22;6611;52.604;13.438;2023-05-29T19:54:44;16.71;45.87
13091;DHT22;6611;52.604;13.438;2023-05-29T19:59:46;16.56;48.60
13091;DHT22;6611;52.604;13.438;2023-05-29T20:04:51;16.40;44.76
13091;DHT22;6611;52.604;13.438;2023-05-29T20:09:54;16.34;46.51
13091;DHT22;6611;52.604;13.438;2023-05-29T20:14:56;16.25;46.16
13091;DHT22;6611;52.604;13.438;2023-05-29T20:19:58;16.12;47.46
13091;DHT22;6611;52.604;13.438;2023-05-29T20:25:01;16.02;48.57
13091;DHT22;6611;52.604;13.438;2023-05-29T20:30:04;15.90;48.11
13091;DHT22;6611;52.604;13.438;2023-05-29T20:35:06;15.74;48.64
13091;DHT22;6611;52.604;13.438;2023-05-29T20:40:11;15.66;50.02
13091;DHT22;6611;52.604;13.438;2023-05-29T20:45:13;15.63;46.73
13091;DHT22;6611;52.604;13.438;2023-05-29T20:50:15;15.46;47.79
13091;DHT22;6611;52.604;13.438;2023-05-29T20:55:18;15.42;50.48
13091;DHT22;6611;52.604;13.438;2023-05-29T21:00:20;15.25;50.77
13091;DHT22;6611;52.604;13.438;2023-05-29T21:05:22;15.12;51.31
13091;DHT22;6611;52.604;13.438;2023-05-29T21:10:25;15.05;51.83
13091;DHT22;6611;52.604;13.438;2023-05-29T21:15:27;14.94;51.91
13091;DHT22;6611;52.604;13.438;2023-05-29T21:20:28;14.80;53.05
13091;DHT22;6611;52.604;13.438;2023-05-29T21:25:32;14.55;54.60
13091;DHT22;6611;52.604;13.438;2023-05-29T21:30:33;14.42;54.70
13091;DHT22;6611;52.604;13.438;2023-05-29T21:35:35;14.30;54.61
13091;DHT22;6611;52.604;13.438;2023-05-29T21:40:39;14.08;55.67
13091;DHT22;6611;52.604;13.438;2023-05-29T21:45:41;13.91;55.30
13091;DHT22;6611;52.604;13.438;2023-05-29T21:50:44;13.78;56.32
13091;DHT22;6611;52.604;13.438;2023-05-29T21:55:48;13.67;56.82
13091;DHT22;6611;52.604;13.438;2023-05-29T22:00:50;13.49;57.65
13091;DHT22;6611;52.604;13.438;2023-05-29T22:05:52;13.39;58.18
13091;DHT22;6611;52.604;13.438;2023-05-29T22:10:55;13.32;58.63
13091;DHT22;6611;52.604;13.438;2023-05-29T22:15:57;13.24;58.84
13091;DHT22;6611;52.604;13.438;2023-05-29T22:20:59;13.14;59.29
13091;DHT22;6611;52.604;13.438;2023-05-29T22:26:05;12.98;59.42
13091;DHT22;6611;52.604;13.438;2023-05-29T22:31:07;12.87;60.07
13091;DHT22;6611;52.604;13.438;2023-05-29T22:36:09;12.83;59.93
13091;DHT22;6611;52.604;13.438;2023-05-29T22:41:12;12.76;60.49
13091;DHT22;6611;52.604;13.438;2023-05-29T22:46:15;12.55;60.70
13091;DHT22;6611;52.604;13.438;2023-05-29T22:51:17;12.55;61.06
13091;DHT22;6611;52.604;13.438;2023-05-29T22:56:20;12.34;62.10
13091;DHT22;6611;52.604;13.438;2023-05-29T23:01:22;12.27;62.02
13091;DHT22;6611;52.604;13.438;2023-05-29T23:06:25;12.14;62.83
13091;DHT22;6611;52.604;13.438;2023-05-29T23:11:28;12.05;62.68
13091;DHT22;6611;52.604;13.438;2023-05-29T23:16:30;11.73;63.47
13091;DHT22;6611;52.604;13.438;2023-05-29T23:21:32;11.72;64.10
13091;DHT22;6611;52.604;13.438;2023-05-29T23:26:35;11.61;64.31
13091;DHT22;6611;52.604;13.438;2023-05-29T23:31:37;11.66;64.51
13091;DHT22;6611;52.604;13.438;2023-05-29T23:36:39;11.65;64.92
13091;DHT22;6611;52.604;13.438;2023-05-29T23:41:42;11.61;64.97
13091;DHT22;6611;52.604;13.438;2023-05-29T23:46:43;11.59;65.39
13091;DHT22;6611;52.604;13.438;2023-05-29T23:51:45;11.49;66.23
13091;DHT22;6611;52.604;13.438;2023-05-29T23:56:50;11.49;65.99
